Terminal Aerodrome Forecast
Issued by NWS

Home | Current Version | Previous Version | Text Only | Print | Product List | Glossary On
Versions: 1 2 3 4 5 6 7 8 9 10 11 12 13 14 15 16 17 18 19 20 21 22 23 24 25 26 27 28 29 30 31 32 33 34 35 36 37 38 39 40 41 42 43 44 45 46
968
FTUS41 KCAR 181120
TAFBHB
TAF
KBHB 181120Z 1812/1912 34005KT P6SM FEW250
     FM182100 16004KT P6SM BKN150
     FM190100 14005KT P6SM VCSH OVC090
     FM190300 11005KT 2SM -SN OVC025
     FM190500 12010G18KT 1/2SM SN OVC015=

USA.gov is the U.S. government's official web portal to all federal, state and local government web resources and services.